Time;durP1;ratioP1;P1;durP2;ratioP2;P2;SDS_P1;SDS_P2;PMS_P1;PMS_P2;Temp;Humidity;BMP_temperature;BMP_pressure;BME280_temperature;BME280_humidity;BME280_pressure;Samples;Min_cycle;Max_cycle;Signal;HPM_P1;HPM_P2
2023/11/16 00:01:52;;;;;;;4.27;0.83;;;9.40;1.00;;;;;;5030735;28;20486;-69
2023/11/16 00:04:17;;;;;;;6.07;0.80;;;9.30;1.00;;;;;;5032029;28;20391;-69
2023/11/16 00:06:43;;;;;;;5.67;1.30;;;9.30;1.00;;;;;;5031828;28;20529;-69
2023/11/16 00:09:09;;;;;;;3.97;0.60;;;9.30;1.00;;;;;;5031261;28;20391;-69
2023/11/16 00:11:40;;;;;;;5.25;1.33;;;9.30;1.00;;;;;;5031212;28;20427;-69
2023/11/16 00:14:06;;;;;;;4.30;0.80;;;9.40;1.00;;;;;;5031434;28;20453;-69
2023/11/16 00:16:31;;;;;;;5.75;1.00;;;9.40;1.00;;;;;;5031023;28;20804;-69
2023/11/16 00:18:57;;;;;;;5.00;1.07;;;9.40;1.00;;;;;;5014922;28;20465;-68
2023/11/16 00:21:23;;;;;;;5.18;1.10;;;9.30;99.90;;;;;;5031123;28;20414;-68
2023/11/16 00:23:49;;;;;;;4.03;0.73;;;9.30;99.90;;;;;;5031416;28;20422;-68
2023/11/16 00:26:14;;;;;;;4.72;0.98;;;9.20;99.90;;;;;;5030571;28;20920;-69
2023/11/16 00:28:41;;;;;;;4.10;0.77;;;9.20;99.90;;;;;;5030836;28;20403;-69
2023/11/16 00:31:08;;;;;;;5.05;1.20;;;9.30;24.40;;;;;;5022466;28;20422;-69
2023/11/16 00:33:34;;;;;;;4.30;0.60;;;9.20;9.50;;;;;;5030210;28;20391;-69
2023/11/16 00:36:06;;;;;;;5.10;1.10;;;9.30;56.70;;;;;;5029350;28;20411;-69
2023/11/16 00:38:35;;;;;;;4.45;1.10;;;9.20;56.20;;;;;;5030006;28;20470;-69
2023/11/16 00:41:01;;;;;;;4.57;1.30;;;9.20;99.90;;;;;;5028942;28;20435;-69
2023/11/16 00:43:27;;;;;;;4.20;1.10;;;9.30;94.70;;;;;;5029886;28;20435;-69
2023/11/16 00:45:55;;;;;;;4.60;1.02;;;9.40;59.70;;;;;;5030735;28;20806;-69
2023/11/16 00:48:21;;;;;;;5.55;1.10;;;9.40;1.00;;;;;;5026920;28;20773;-69
2023/11/16 00:50:46;;;;;;;5.33;1.33;;;9.30;1.00;;;;;;5027574;28;20391;-69
2023/11/16 00:53:13;;;;;;;4.65;0.85;;;9.40;1.00;;;;;;5016561;28;20760;-69
2023/11/16 00:55:39;;;;;;;6.72;0.98;;;9.30;1.00;;;;;;5030725;28;20403;-70
2023/11/16 00:58:05;;;;;;;6.00;0.80;;;9.40;1.00;;;;;;5030208;28;20962;-69
2023/11/16 01:00:31;;;;;;;5.50;1.20;;;9.40;18.40;;;;;;5014174;28;20447;-69
2023/11/16 01:02:58;;;;;;;5.32;1.30;;;9.50;1.00;;;;;;5030964;28;20458;-69
2023/11/16 01:05:24;;;;;;;8.15;0.95;;;9.50;1.00;;;;;;5030687;28;20434;-69
2023/11/16 01:07:50;;;;;;;6.00;1.10;;;9.60;1.00;;;;;;5030340;28;20395;-69
2023/11/16 01:10:23;;;;;;;7.17;1.00;;;9.60;1.00;;;;;;5030994;28;20404;-69
2023/11/16 01:12:51;;;;;;;4.35;0.98;;;9.70;1.00;;;;;;5029543;28;20427;-69
2023/11/16 01:15:18;;;;;;;4.35;1.02;;;9.60;1.00;;;;;;5030435;28;20399;-69
2023/11/16 01:17:45;;;;;;;7.15;1.80;;;9.60;1.00;;;;;;5030675;28;20430;-69
2023/11/16 01:20:18;;;;;;;4.53;0.90;;;9.70;1.00;;;;;;5030546;28;20399;-69
2023/11/16 01:22:50;;;;;;;4.50;0.93;;;9.70;1.00;;;;;;5030678;28;20399;-69
2023/11/16 01:25:20;;;;;;;5.13;1.00;;;9.60;1.00;;;;;;5030041;28;20430;-70
2023/11/16 01:27:50;;;;;;;5.00;1.10;;;9.50;1.00;;;;;;5029582;28;20406;-69
2023/11/16 01:30:16;;;;;;;6.95;1.50;;;9.50;1.00;;;;;;5021519;28;20398;-69
2023/11/16 01:32:41;;;;;;;5.17;1.30;;;9.40;1.00;;;;;;5030522;28;20427;-69
2023/11/16 01:35:08;;;;;;;6.10;1.20;;;9.50;1.00;;;;;;5029619;28;20403;-69
2023/11/16 01:37:34;;;;;;;6.07;1.17;;;9.50;2.10;;;;;;5029268;28;20406;-69
2023/11/16 01:40:00;;;;;;;4.70;0.98;;;9.50;1.00;;;;;;5029116;28;20830;-69
2023/11/16 01:42:25;;;;;;;6.70;0.80;;;9.40;1.00;;;;;;5029956;28;20579;-69
2023/11/16 01:44:51;;;;;;;7.10;1.10;;;9.30;1.00;;;;;;5027763;28;20438;-69
2023/11/16 01:47:16;;;;;;;3.92;0.70;;;9.20;7.50;;;;;;5011243;28;20748;-69
2023/11/16 01:49:43;;;;;;;7.03;1.10;;;9.30;37.10;;;;;;5030316;28;20411;-69
2023/11/16 01:52:09;;;;;;;6.07;1.27;;;9.30;21.50;;;;;;5029514;28;20770;-69
2023/11/16 01:54:36;;;;;;;4.95;0.98;;;9.30;47.70;;;;;;5029445;28;20411;-69
2023/11/16 01:57:03;;;;;;;4.00;0.70;;;9.40;79.20;;;;;;5029375;28;20391;-69
2023/11/16 01:59:31;;;;;;;6.50;1.27;;;9.50;29.80;;;;;;5029021;28;20905;-69
2023/11/16 02:01:57;;;;;;;5.93;0.90;;;9.50;1.00;;;;;;5029565;28;20449;-69
2023/11/16 02:04:23;;;;;;;4.20;0.60;;;9.50;1.00;;;;;;5025796;28;20407;-69
2023/11/16 02:06:49;;;;;;;6.90;1.00;;;9.40;1.00;;;;;;5029720;28;20550;-69
2023/11/16 02:09:15;;;;;;;5.80;1.30;;;9.50;1.00;;;;;;5029443;28;20489;-69
2023/11/16 02:11:41;;;;;;;4.18;1.05;;;9.50;20.10;;;;;;5029421;28;20450;-69
2023/11/16 02:14:06;;;;;;;4.93;1.40;;;9.60;32.40;;;;;;5029252;28;20423;-69
2023/11/16 02:16:32;;;;;;;4.60;0.90;;;9.60;24.60;;;;;;5029402;28;20796;-69
2023/11/16 02:19:13;;;;;;;6.63;1.47;;;9.70;4.60;;;;;;5028969;28;20430;-69
2023/11/16 02:21:42;;;;;;;4.60;1.10;;;9.70;1.00;;;;;;5029130;28;20430;-69
2023/11/16 02:24:09;;;;;;;6.05;1.08;;;9.80;1.00;;;;;;5029190;28;20453;-69
2023/11/16 02:26:36;;;;;;;4.70;1.08;;;9.80;1.00;;;;;;5028909;28;20441;-69
2023/11/16 02:29:04;;;;;;;4.10;0.90;;;9.80;1.00;;;;;;5028784;28;20399;-69
2023/11/16 02:31:29;;;;;;;3.90;0.70;;;9.70;1.00;;;;;;5028008;28;20415;-69
2023/11/16 02:33:56;;;;;;;6.30;1.27;;;9.60;1.00;;;;;;5028672;28;20418;-69
2023/11/16 02:36:21;;;;;;;4.40;0.80;;;9.50;1.00;;;;;;5027500;28;20482;-69
2023/11/16 02:38:47;;;;;;;3.88;0.60;;;9.40;1.00;;;;;;5022019;28;20965;-69
2023/11/16 02:41:14;;;;;;;4.13;0.80;;;9.40;1.00;;;;;;5028563;28;20469;-69
2023/11/16 02:43:41;;;;;;;8.82;1.08;;;9.40;2.00;;;;;;5028624;28;20926;-69
2023/11/16 02:46:06;;;;;;;6.78;0.98;;;9.40;1.00;;;;;;5028285;28;20970;-69
2023/11/16 02:48:32;;;;;;;3.90;0.70;;;9.40;12.60;;;;;;5027707;28;20491;-69
2023/11/16 02:50:57;;;;;;;4.60;1.00;;;9.50;1.00;;;;;;5027774;28;20407;-69
2023/11/16 02:53:23;;;;;;;4.10;0.90;;;9.50;1.00;;;;;;5027838;28;20411;-69
2023/11/16 02:55:49;;;;;;;6.85;0.98;;;9.40;1.00;;;;;;5028415;28;20422;-69
2023/11/16 02:58:14;;;;;;;6.60;0.97;;;9.40;1.00;;;;;;5028793;28;20429;-69
2023/11/16 03:00:40;;;;;;;5.10;0.77;;;9.50;1.00;;;;;;5029202;28;20719;-69
2023/11/16 03:03:08;;;;;;;4.20;0.80;;;9.60;1.00;;;;;;5028909;28;20399;-69
2023/11/16 03:05:33;;;;;;;8.40;1.00;;;9.50;1.00;;;;;;5028889;28;20405;-69
2023/11/16 03:07:59;;;;;;;4.80;0.50;;;9.50;1.00;;;;;;5028012;28;20407;-68
2023/11/16 03:10:24;;;;;;;3.70;0.50;;;9.40;1.00;;;;;;5028359;28;20395;-69
2023/11/16 03:12:50;;;;;;;4.72;0.90;;;9.40;1.00;;;;;;5028795;28;20481;-68
2023/11/16 03:15:15;;;;;;;3.90;0.70;;;9.40;1.00;;;;;;5029571;28;20441;-69
2023/11/16 03:17:44;;;;;;;4.40;0.80;;;9.30;1.00;;;;;;5028683;28;20419;-69
2023/11/16 03:20:15;;;;;;;4.00;0.60;;;9.40;1.00;;;;;;5028597;28;20403;-69
2023/11/16 03:22:41;;;;;;;4.00;0.63;;;9.40;1.00;;;;;;5027846;28;20539;-69
2023/11/16 03:25:07;;;;;;;4.40;0.80;;;9.40;1.00;;;;;;5027056;28;20494;-69
2023/11/16 03:27:33;;;;;;;4.80;1.00;;;9.40;1.00;;;;;;5028296;28;20399;-69
2023/11/16 03:29:58;;;;;;;7.40;0.80;;;9.40;1.00;;;;;;5028413;28;20850;-69
2023/11/16 03:32:25;;;;;;;6.60;1.40;;;9.40;1.00;;;;;;5028440;28;20473;-69
2023/11/16 03:34:50;;;;;;;4.05;0.70;;;9.40;1.00;;;;;;5028565;28;20387;-69
2023/11/16 03:37:19;;;;;;;4.83;0.80;;;9.40;1.00;;;;;;5030630;28;20946;-69
2023/11/16 03:39:45;;;;;;;4.97;1.10;;;9.40;1.00;;;;;;5030969;28;20414;-69
2023/11/16 03:42:11;;;;;;;6.30;0.70;;;9.40;1.00;;;;;;5028349;28;20446;-69
2023/11/16 03:44:37;;;;;;;4.18;0.70;;;9.40;1.00;;;;;;5031399;28;20429;-69
2023/11/16 03:47:04;;;;;;;5.47;0.90;;;9.30;1.00;;;;;;5031475;28;20818;-69
2023/11/16 03:49:29;;;;;;;4.60;1.00;;;9.30;1.00;;;;;;5030963;28;20478;-69
2023/11/16 03:51:57;;;;;;;4.28;0.70;;;9.30;1.00;;;;;;5031401;28;20558;-69
2023/11/16 03:54:22;;;;;;;10.68;0.80;;;9.20;1.00;;;;;;5029966;28;20461;-69
2023/11/16 03:56:50;;;;;;;5.40;0.80;;;9.00;1.00;;;;;;5030879;28;20407;-69
2023/11/16 03:59:16;;;;;;;4.17;0.70;;;9.00;1.00;;;;;;5027591;28;20444;-69
2023/11/16 04:01:42;;;;;;;5.22;0.80;;;9.00;1.00;;;;;;5031742;28;20391;-68
2023/11/16 04:04:11;;;;;;;5.50;1.00;;;9.00;1.00;;;;;;5029809;28;20411;-68
2023/11/16 04:06:37;;;;;;;4.70;0.73;;;9.00;1.00;;;;;;5031085;28;20444;-68
2023/11/16 04:09:05;;;;;;;4.40;1.00;;;8.90;26.50;;;;;;5030242;28;20407;-68
2023/11/16 04:11:31;;;;;;;8.10;0.60;;;8.80;59.30;;;;;;5029407;28;20889;-68
2023/11/16 04:13:57;;;;;;;9.27;0.90;;;8.90;99.90;;;;;;5031413;28;20395;-68
2023/11/16 04:16:26;;;;;;;3.50;0.50;;;8.90;99.90;;;;;;5030145;28;20418;-68
2023/11/16 04:18:52;;;;;;;4.05;1.10;;;8.90;99.90;;;;;;5027247;28;20634;-68
2023/11/16 04:21:25;;;;;;;4.65;0.90;;;8.90;99.90;;;;;;5030587;28;20904;-68
2023/11/16 04:23:52;;;;;;;4.10;0.80;;;8.90;99.90;;;;;;5029821;28;20403;-68
2023/11/16 04:26:21;;;;;;;4.60;0.80;;;8.90;99.90;;;;;;5030104;28;20466;-68
2023/11/16 04:28:48;;;;;;;3.70;0.60;;;8.90;99.90;;;;;;5030904;28;20764;-68
2023/11/16 04:31:15;;;;;;;4.10;0.80;;;8.90;99.90;;;;;;5029642;28;20411;-68
2023/11/16 04:33:41;;;;;;;4.60;1.00;;;9.00;99.90;;;;;;5031255;28;20391;-68
2023/11/16 04:36:08;;;;;;;3.80;0.60;;;9.00;99.90;;;;;;5029416;28;20470;-68
2023/11/16 04:38:34;;;;;;;5.55;0.98;;;9.10;99.90;;;;;;5030313;28;20395;-68
2023/11/16 04:41:00;;;;;;;3.90;0.70;;;9.00;99.90;;;;;;5030362;28;20402;-68
2023/11/16 04:43:26;;;;;;;4.00;0.50;;;9.00;99.90;;;;;;5027502;28;20404;-68
2023/11/16 04:45:52;;;;;;;3.90;0.60;;;9.00;94.60;;;;;;5029794;28;20391;-68
2023/11/16 04:48:19;;;;;;;6.20;1.40;;;9.10;99.90;;;;;;5029471;28;20492;-68
2023/11/16 04:50:45;;;;;;;4.03;0.70;;;9.10;99.90;;;;;;5030858;28;20735;-68
2023/11/16 04:53:10;;;;;;;3.60;0.40;;;9.20;99.90;;;;;;5030028;28;20485;-68
2023/11/16 04:55:36;;;;;;;3.60;0.40;;;9.20;17.40;;;;;;5029899;28;20469;-68
2023/11/16 04:58:02;;;;;;;5.60;1.00;;;9.20;27.90;;;;;;5025645;28;20407;-68
2023/11/16 05:00:28;;;;;;;5.30;1.00;;;9.20;8.50;;;;;;5015774;28;20946;-68
2023/11/16 05:02:53;;;;;;;4.32;0.70;;;9.20;1.00;;;;;;5029549;28;20923;-68
2023/11/16 05:05:19;;;;;;;5.50;0.93;;;9.20;1.00;;;;;;5028381;28;20415;-67
2023/11/16 05:07:45;;;;;;;7.80;1.00;;;9.20;1.00;;;;;;5025239;28;20447;-68
2023/11/16 05:10:11;;;;;;;4.10;0.70;;;9.20;1.00;;;;;;5028929;28;20422;-68
2023/11/16 05:12:39;;;;;;;4.25;0.70;;;9.10;1.00;;;;;;5024371;28;20826;-68
2023/11/16 05:15:06;;;;;;;4.30;0.90;;;9.00;1.00;;;;;;5017654;28;20904;-68
2023/11/16 05:17:32;;;;;;;5.20;0.80;;;9.00;17.40;;;;;;5024813;28;20407;-68
2023/11/16 05:19:58;;;;;;;5.90;1.00;;;9.10;76.30;;;;;;5030540;28;20393;-69
2023/11/16 05:22:23;;;;;;;4.43;0.80;;;9.20;42.70;;;;;;5028806;28;20888;-70
2023/11/16 05:24:49;;;;;;;3.80;0.70;;;9.10;1.00;;;;;;5026377;28;20407;-69
2023/11/16 05:27:14;;;;;;;4.80;0.70;;;9.10;7.70;;;;;;5019341;28;20396;-70
2023/11/16 05:29:40;;;;;;;3.75;0.70;;;9.20;1.00;;;;;;5017448;28;20404;-69
2023/11/16 05:32:06;;;;;;;6.73;1.40;;;9.30;1.00;;;;;;5009637;28;20461;-69
2023/11/16 05:34:32;;;;;;;4.30;0.80;;;9.30;1.00;;;;;;5024012;28;20500;-69
2023/11/16 05:36:58;;;;;;;4.40;1.10;;;9.40;1.00;;;;;;5017270;28;20444;-69
2023/11/16 05:39:23;;;;;;;4.50;1.00;;;9.40;1.00;;;;;;5025455;28;20493;-69
2023/11/16 05:41:49;;;;;;;7.30;1.10;;;9.40;1.00;;;;;;5022012;28;20908;-69
2023/11/16 05:44:17;;;;;;;4.70;0.90;;;9.50;1.00;;;;;;5017891;28;20405;-68
2023/11/16 05:46:44;;;;;;;6.15;1.25;;;9.40;1.00;;;;;;5018829;28;20470;-69
2023/11/16 05:49:09;;;;;;;4.10;0.77;;;9.30;1.00;;;;;;5023953;28;20418;-69
2023/11/16 05:51:36;;;;;;;4.53;0.70;;;9.30;1.00;;;;;;5028243;28;20801;-69
2023/11/16 05:54:07;;;;;;;6.88;1.50;;;9.30;1.00;;;;;;5016366;28;20416;-69
2023/11/16 05:56:40;;;;;;;6.32;0.63;;;9.30;1.00;;;;;;5017625;28;20430;-69
2023/11/16 05:59:08;;;;;;;3.60;0.50;;;9.20;1.00;;;;;;5015015;28;21028;-69
2023/11/16 06:01:37;;;;;;;4.80;0.50;;;9.30;1.00;;;;;;5010782;28;20404;-70
2023/11/16 06:04:07;;;;;;;4.40;0.82;;;9.20;1.00;;;;;;5014653;28;20452;-75
2023/11/16 06:06:33;;;;;;;5.20;0.80;;;9.30;1.00;;;;;;5012343;28;20416;-70
2023/11/16 06:08:59;;;;;;;5.00;1.00;;;9.30;1.00;;;;;;5025458;28;20383;-70
2023/11/16 06:11:25;;;;;;;4.30;0.80;;;9.30;1.00;;;;;;5028508;28;20407;-70
2023/11/16 06:13:54;;;;;;;4.20;0.77;;;9.30;1.00;;;;;;5028826;28;20406;-70
2023/11/16 06:16:21;;;;;;;5.00;0.98;;;9.30;1.00;;;;;;5029487;28;20383;-70
2023/11/16 06:18:47;;;;;;;4.20;0.80;;;9.30;1.00;;;;;;5028600;28;20422;-69
2023/11/16 06:21:13;;;;;;;4.90;1.20;;;9.40;1.00;;;;;;5027037;28;20410;-69
2023/11/16 06:23:38;;;;;;;5.10;1.00;;;9.40;77.90;;;;;;5029335;28;20384;-70
2023/11/16 06:26:04;;;;;;;4.63;1.10;;;9.30;96.70;;;;;;5022611;28;20385;-69
2023/11/16 06:28:30;;;;;;;4.10;0.80;;;9.30;99.90;;;;;;5009518;28;20829;-69
2023/11/16 06:30:56;;;;;;;4.15;0.90;;;9.40;1.00;;;;;;5017940;28;20391;-69
2023/11/16 06:33:21;;;;;;;5.10;0.85;;;9.30;1.00;;;;;;5026901;28;20418;-70
2023/11/16 06:35:47;;;;;;;5.70;1.10;;;9.30;1.00;;;;;;5025156;28;20395;-69
2023/11/16 06:38:13;;;;;;;4.90;1.63;;;9.30;1.00;;;;;;5026867;28;20489;-69
2023/11/16 06:40:39;;;;;;;5.10;1.70;;;9.30;1.00;;;;;;5029029;28;20392;-69
2023/11/16 06:43:06;;;;;;;4.90;1.00;;;9.20;1.00;;;;;;5024232;28;20467;-69
2023/11/16 06:45:37;;;;;;;5.00;0.90;;;9.10;1.00;;;;;;5009290;28;20416;-69
2023/11/16 06:48:03;;;;;;;7.70;1.20;;;9.10;1.00;;;;;;5009424;28;20397;-69
2023/11/16 06:50:33;;;;;;;5.13;1.00;;;9.00;1.00;;;;;;5009536;28;20407;-69
2023/11/16 06:53:05;;;;;;;4.25;0.82;;;9.00;1.00;;;;;;5009600;28;21014;-69
2023/11/16 06:55:34;;;;;;;5.10;1.02;;;8.90;1.00;;;;;;5009074;28;20508;-69
2023/11/16 06:58:00;;;;;;;4.70;0.85;;;8.80;1.00;;;;;;5012465;28;20388;-69
2023/11/16 07:00:27;;;;;;;4.93;1.60;;;8.70;1.00;;;;;;5008645;28;20389;-69
2023/11/16 07:02:53;;;;;;;7.30;1.35;;;8.70;1.00;;;;;;5008283;28;20964;-69
2023/11/16 07:05:21;;;;;;;4.70;1.20;;;8.70;1.00;;;;;;5012794;28;20781;-69
2023/11/16 07:07:47;;;;;;;7.45;1.70;;;8.70;3.00;;;;;;5017159;28;20398;-69
2023/11/16 07:10:12;;;;;;;5.43;1.27;;;8.80;91.80;;;;;;5021265;28;20452;-69
2023/11/16 07:12:42;;;;;;;5.57;1.35;;;8.90;44.80;;;;;;5018477;28;20481;-69
2023/11/16 07:15:09;;;;;;;7.07;1.60;;;9.00;1.00;;;;;;5027308;28;20398;-69
2023/11/16 07:17:34;;;;;;;4.20;0.90;;;9.10;1.00;;;;;;5032625;28;20794;-69
2023/11/16 07:20:00;;;;;;;5.17;0.93;;;9.20;1.00;;;;;;5032486;28;20412;-69
2023/11/16 07:22:29;;;;;;;5.70;1.40;;;9.20;1.00;;;;;;5031491;28;20395;-69
2023/11/16 07:24:55;;;;;;;7.10;1.20;;;9.20;1.00;;;;;;5022596;28;20401;-69
2023/11/16 07:27:22;;;;;;;4.18;1.02;;;9.20;1.00;;;;;;5012758;28;20923;-69
2023/11/16 07:29:48;;;;;;;4.45;1.00;;;9.20;1.00;;;;;;5012980;28;20744;-69
2023/11/16 07:32:15;;;;;;;12.80;1.40;;;9.20;1.00;;;;;;5013273;28;20426;-69
2023/11/16 07:34:41;;;;;;;16.20;1.27;;;9.30;1.00;;;;;;5012341;28;20805;-69
2023/11/16 07:37:07;;;;;;;5.00;0.90;;;9.40;1.00;;;;;;5012846;28;20534;-69
2023/11/16 07:39:33;;;;;;;4.20;0.90;;;9.40;1.00;;;;;;5012468;28;20405;-69
2023/11/16 07:41:59;;;;;;;5.13;1.20;;;9.40;1.00;;;;;;5022595;28;20395;-69
2023/11/16 07:44:25;;;;;;;5.55;1.20;;;9.40;1.00;;;;;;5032659;28;20387;-69
2023/11/16 07:46:51;;;;;;;6.07;1.30;;;9.40;1.00;;;;;;5032027;28;20383;-69
2023/11/16 07:49:17;;;;;;;5.10;1.23;;;9.40;1.00;;;;;;5031664;28;20762;-69
2023/11/16 07:51:43;;;;;;;5.15;1.48;;;9.60;1.00;;;;;;5032674;28;20438;-69
2023/11/16 07:54:11;;;;;;;5.20;1.30;;;9.60;1.00;;;;;;5031741;28;20387;-69
2023/11/16 07:56:41;;;;;;;4.85;1.40;;;9.70;1.00;;;;;;5032343;28;20757;-69
2023/11/16 07:59:14;;;;;;;5.40;1.15;;;9.60;1.00;;;;;;5032482;28;20742;-69
2023/11/16 08:01:49;;;;;;;4.63;1.10;;;9.60;1.00;;;;;;5032669;28;20425;-69
2023/11/16 08:04:19;;;;;;;6.17;1.23;;;9.70;1.00;;;;;;5032248;28;20598;-69
2023/11/16 08:06:45;;;;;;;11.18;1.48;;;9.80;1.00;;;;;;5032102;28;20905;-69
2023/11/16 08:09:10;;;;;;;6.07;1.17;;;9.70;1.00;;;;;;5031959;28;20403;-69
2023/11/16 08:11:36;;;;;;;4.50;1.10;;;9.80;1.00;;;;;;5032101;28;20418;-69
2023/11/16 08:14:06;;;;;;;4.75;0.88;;;9.80;1.00;;;;;;5031927;28;20398;-69
2023/11/16 08:16:34;;;;;;;4.85;1.25;;;9.90;1.00;;;;;;5018611;28;20400;-69
2023/11/16 08:19:02;;;;;;;12.48;1.70;;;10.00;1.00;;;;;;5011735;28;20441;-69
2023/11/16 08:21:28;;;;;;;7.40;1.40;;;10.20;1.00;;;;;;5011231;28;20388;-70
2023/11/16 08:23:55;;;;;;;6.10;1.30;;;10.40;1.00;;;;;;5011871;28;20742;-70
2023/11/16 08:26:21;;;;;;;8.48;1.90;;;10.50;1.00;;;;;;5012064;28;20396;-70
2023/11/16 08:28:47;;;;;;;6.97;1.92;;;10.50;1.00;;;;;;5011861;28;20421;-70
2023/11/16 08:31:14;;;;;;;6.20;1.92;;;10.70;1.00;;;;;;5012457;28;20400;-70
2023/11/16 08:33:41;;;;;;;6.35;1.70;;;10.70;1.00;;;;;;5011351;28;20389;-70
2023/11/16 08:36:13;;;;;;;5.70;1.60;;;10.80;1.00;;;;;;5011649;28;20903;-70
2023/11/16 08:38:41;;;;;;;8.23;1.93;;;11.00;1.00;;;;;;5011518;28;20397;-70
2023/11/16 08:41:09;;;;;;;10.30;2.40;;;11.10;1.00;;;;;;5011702;28;20451;-70
2023/11/16 08:43:35;;;;;;;8.97;2.17;;;11.10;1.00;;;;;;5011449;28;20408;-70
2023/11/16 08:46:01;;;;;;;7.20;2.30;;;11.30;1.00;;;;;;5011517;28;20388;-70
2023/11/16 08:48:33;;;;;;;8.50;2.07;;;11.30;1.00;;;;;;5011300;28;20481;-70
2023/11/16 08:51:00;;;;;;;7.03;2.00;;;11.40;1.00;;;;;;5011736;28;20393;-70
2023/11/16 08:53:30;;;;;;;8.40;2.00;;;11.40;1.00;;;;;;5011140;28;20535;-70
2023/11/16 08:55:58;;;;;;;9.43;2.13;;;11.60;1.00;;;;;;5011275;28;20439;-70
2023/11/16 08:58:25;;;;;;;6.25;1.90;;;11.70;1.00;;;;;;5011151;28;20748;-70
2023/11/16 09:00:51;;;;;;;6.35;2.25;;;11.90;1.00;;;;;;5010913;28;20404;-70
2023/11/16 09:03:18;;;;;;;5.57;1.90;;;11.90;1.00;;;;;;5010843;28;20875;-70
2023/11/16 09:05:44;;;;;;;8.55;2.08;;;11.90;1.00;;;;;;5011848;28;20479;-70
2023/11/16 09:08:10;;;;;;;7.23;2.07;;;11.90;1.00;;;;;;5011160;28;20452;-70
2023/11/16 09:10:36;;;;;;;7.43;1.50;;;11.80;1.00;;;;;;5011053;28;20401;-70
2023/11/16 09:13:03;;;;;;;8.40;1.50;;;11.80;1.00;;;;;;5011192;28;20423;-70
2023/11/16 09:15:33;;;;;;;9.60;2.10;;;11.80;1.00;;;;;;5027633;28;20403;-70
2023/11/16 09:17:59;;;;;;;5.78;1.75;;;11.80;1.00;;;;;;5030563;28;20861;-70
2023/11/16 09:20:28;;;;;;;6.13;1.73;;;11.60;1.00;;;;;;5030786;28;20754;-70
2023/11/16 09:22:57;;;;;;;7.70;1.50;;;11.60;1.00;;;;;;5031291;28;20410;-70
2023/11/16 09:25:23;;;;;;;11.10;1.90;;;11.60;1.00;;;;;;5030700;28;20494;-71
2023/11/16 09:27:51;;;;;;;7.57;2.40;;;11.60;1.00;;;;;;5030853;28;20444;-70
2023/11/16 09:30:17;;;;;;;6.50;2.10;;;11.60;1.00;;;;;;5030401;28;20398;-70
2023/11/16 09:32:44;;;;;;;5.00;1.40;;;11.70;1.00;;;;;;5030473;28;20514;-70
2023/11/16 09:35:14;;;;;;;6.63;1.75;;;11.80;1.00;;;;;;5030554;28;20411;-70
2023/11/16 09:37:46;;;;;;;5.40;1.95;;;12.00;1.00;;;;;;5030466;28;20387;-70
2023/11/16 09:40:13;;;;;;;7.28;2.00;;;12.20;1.00;;;;;;5030512;28;20403;-70
2023/11/16 09:42:43;;;;;;;6.20;2.10;;;12.20;1.00;;;;;;5030173;28;20402;-70
2023/11/16 09:45:09;;;;;;;6.27;2.00;;;12.20;1.00;;;;;;5030220;28;20955;-70
2023/11/16 09:47:42;;;;;;;6.50;2.00;;;12.10;1.00;;;;;;5030451;28;20407;-70
2023/11/16 09:50:08;;;;;;;9.65;2.70;;;12.00;1.00;;;;;;5029911;28;20436;-70
2023/11/16 09:52:38;;;;;;;6.75;2.30;;;12.10;1.00;;;;;;5029778;28;20453;-70
2023/11/16 09:55:06;;;;;;;8.13;2.58;;;12.20;1.00;;;;;;5029803;28;20403;-70
2023/11/16 09:57:34;;;;;;;15.27;4.50;;;12.30;1.00;;;;;;5029693;28;20939;-70
2023/11/16 10:00:13;;;;;;;13.05;3.63;;;12.40;1.00;;;;;;5029801;28;20391;-70
2023/11/16 10:02:43;;;;;;;13.20;2.55;;;12.20;1.00;;;;;;5029933;28;20464;-69
2023/11/16 10:05:22;;;;;;;9.30;2.45;;;12.10;1.00;;;;;;5029899;28;20409;-70
2023/11/16 10:07:53;;;;;;;7.03;1.90;;;11.90;1.00;;;;;;5029747;28;20424;-70
2023/11/16 10:10:19;;;;;;;20.08;2.20;;;11.70;1.00;;;;;;5029998;28;20818;-70
2023/11/16 10:12:50;;;;;;;10.82;3.03;;;11.60;1.00;;;;;;5030273;28;20472;-70
2023/11/16 10:15:20;;;;;;;7.80;2.35;;;11.40;1.00;;;;;;5030124;28;20490;-70
2023/11/16 10:17:46;;;;;;;9.05;3.38;;;11.30;1.00;;;;;;5030329;28;20410;-70
2023/11/16 10:20:14;;;;;;;7.45;1.98;;;11.20;1.00;;;;;;5030339;28;20394;-70
2023/11/16 10:22:41;;;;;;;7.63;2.60;;;11.20;1.00;;;;;;5029655;28;20830;-70
2023/11/16 10:25:10;;;;;;;7.30;2.53;;;11.20;1.00;;;;;;5029970;28;20391;-70
2023/11/16 10:27:36;;;;;;;8.63;2.47;;;11.20;1.00;;;;;;5029699;28;20884;-70
2023/11/16 10:30:04;;;;;;;6.57;2.20;;;11.30;1.00;;;;;;5029423;28;20418;-70
2023/11/16 10:32:30;;;;;;;5.57;2.03;;;11.40;1.00;;;;;;5029710;28;20485;-70
2023/11/16 10:34:56;;;;;;;7.53;2.35;;;11.40;1.00;;;;;;5029477;28;20399;-70
2023/11/16 10:37:28;;;;;;;7.50;2.13;;;11.40;1.00;;;;;;5029531;28;20399;-70
2023/11/16 10:39:54;;;;;;;9.33;1.63;;;11.40;1.00;;;;;;5029648;28;20593;-70
2023/11/16 10:42:20;;;;;;;6.85;2.17;;;11.40;1.00;;;;;;5029110;28;20761;-70
2023/11/16 10:44:49;;;;;;;8.07;2.20;;;11.30;1.00;;;;;;5031743;28;20415;-69
2023/11/16 10:47:16;;;;;;;9.23;2.40;;;11.20;1.00;;;;;;5034145;28;20387;-69
2023/11/16 10:49:42;;;;;;;8.15;2.20;;;11.10;1.00;;;;;;5033421;28;20404;-69
2023/11/16 10:52:14;;;;;;;9.15;1.80;;;11.10;1.00;;;;;;5033479;28;20446;-69
2023/11/16 10:54:45;;;;;;;7.93;2.00;;;11.10;1.00;;;;;;5033554;28;20391;-70
2023/11/16 10:57:15;;;;;;;6.20;1.60;;;11.20;1.00;;;;;;5033564;28;20778;-70
2023/11/16 10:59:47;;;;;;;7.05;1.38;;;11.10;1.00;;;;;;5032971;28;20406;-71
2023/11/16 11:02:15;;;;;;;9.18;2.00;;;11.10;1.00;;;;;;5033445;28;20893;-70
2023/11/16 11:04:41;;;;;;;5.50;1.60;;;11.20;1.00;;;;;;5033513;28;20389;-70
2023/11/16 11:07:12;;;;;;;6.28;1.98;;;11.30;1.00;;;;;;5033202;28;20469;-70
2023/11/16 11:09:42;;;;;;;9.88;1.67;;;11.20;1.00;;;;;;5033303;28;20391;-70
2023/11/16 11:12:13;;;;;;;8.70;2.00;;;11.30;1.00;;;;;;5032941;28;20442;-71
2023/11/16 11:14:48;;;;;;;4.93;1.20;;;11.20;1.00;;;;;;5033429;28;20394;-70
2023/11/16 11:17:17;;;;;;;9.80;1.80;;;11.20;1.00;;;;;;5014408;28;20405;-71
2023/11/16 11:19:54;;;;;;;9.77;2.53;;;11.10;1.00;;;;;;5013243;28;20413;-71
2023/11/16 11:22:28;;;;;;;8.95;3.20;;;11.20;1.00;;;;;;5013404;28;20577;-71
2023/11/16 11:24:57;;;;;;;8.57;2.40;;;11.30;1.00;;;;;;5013205;28;20485;-71
2023/11/16 11:27:25;;;;;;;6.73;2.27;;;11.30;1.00;;;;;;5011844;28;20919;-71
2023/11/16 11:29:52;;;;;;;9.10;2.63;;;11.30;1.00;;;;;;5013045;28;20416;-71
2023/11/16 11:32:20;;;;;;;10.27;1.92;;;11.40;1.00;;;;;;5012789;28;20471;-71
2023/11/16 11:34:49;;;;;;;6.90;1.90;;;11.40;1.00;;;;;;5013440;28;20392;-71
2023/11/16 11:37:15;;;;;;;9.00;2.10;;;11.40;1.00;;;;;;5013626;28;20496;-71
2023/11/16 11:39:41;;;;;;;6.72;1.48;;;11.50;1.00;;;;;;5012794;28;20403;-71
2023/11/16 11:42:09;;;;;;;9.37;1.60;;;11.50;1.00;;;;;;5012300;28;20397;-71
2023/11/16 11:44:35;;;;;;;6.68;2.10;;;11.60;1.00;;;;;;5012711;28;20743;-71
2023/11/16 11:47:01;;;;;;;7.87;1.90;;;11.70;1.00;;;;;;5012649;28;20479;-71
2023/11/16 11:49:26;;;;;;;6.70;2.30;;;11.80;1.00;;;;;;5012935;28;20469;-71
2023/11/16 11:51:59;;;;;;;6.05;1.98;;;11.80;1.00;;;;;;5012109;28;20570;-71
2023/11/16 11:54:51;;;;;;;10.60;2.65;;;12.00;1.00;;;;;;5012347;28;20385;-70
2023/11/16 11:57:16;;;;;;;7.32;2.15;;;12.20;1.00;;;;;;5010389;28;20408;-71
2023/11/16 11:59:45;;;;;;;9.80;2.30;;;12.20;1.00;;;;;;5013078;28;20769;-71
2023/11/16 12:02:11;;;;;;;9.80;2.38;;;12.20;1.00;;;;;;5012593;28;20432;-71
2023/11/16 12:04:39;;;;;;;6.43;2.20;;;12.10;1.00;;;;;;5012191;28;20920;-71
2023/11/16 12:07:07;;;;;;;6.20;2.45;;;11.90;1.00;;;;;;5012229;28;20393;-71
2023/11/16 12:09:41;;;;;;;8.40;2.40;;;11.80;1.00;;;;;;5012204;28;20389;-71
2023/11/16 12:12:09;;;;;;;7.03;2.40;;;11.90;1.00;;;;;;5012229;28;20462;-71
2023/11/16 12:14:43;;;;;;;6.55;2.25;;;11.90;1.00;;;;;;5022404;28;20403;-71
2023/11/16 12:17:09;;;;;;;9.20;2.83;;;11.80;1.00;;;;;;5028522;28;20794;-71
2023/11/16 12:19:39;;;;;;;10.60;2.73;;;11.80;1.00;;;;;;5026278;28;20467;-71
2023/11/16 12:22:07;;;;;;;8.23;2.63;;;11.80;1.00;;;;;;5028423;28;20411;-71
2023/11/16 12:24:33;;;;;;;12.70;3.40;;;11.80;1.00;;;;;;5029051;28;20411;-71
2023/11/16 12:26:58;;;;;;;6.68;1.92;;;11.80;1.00;;;;;;5031612;28;20449;-71
2023/11/16 12:29:26;;;;;;;11.23;2.70;;;11.80;1.00;;;;;;5029903;28;20418;-71
2023/11/16 12:31:53;;;;;;;8.68;2.28;;;11.90;1.00;;;;;;5030672;28;20419;-71
2023/11/16 12:34:19;;;;;;;9.70;1.60;;;11.90;1.00;;;;;;5030438;28;20398;-71
2023/11/16 12:36:44;;;;;;;7.40;2.00;;;11.80;1.00;;;;;;5031133;28;21177;-71
2023/11/16 12:39:10;;;;;;;5.83;1.60;;;11.70;1.00;;;;;;5028637;28;20413;-71
2023/11/16 12:41:37;;;;;;;5.95;1.60;;;11.70;1.00;;;;;;5026865;28;20438;-71
2023/11/16 12:44:03;;;;;;;7.00;2.27;;;11.80;1.00;;;;;;5031145;28;20492;-71
2023/11/16 12:46:28;;;;;;;6.88;1.90;;;11.80;1.00;;;;;;5030512;28;20449;-71
2023/11/16 12:48:54;;;;;;;6.57;2.00;;;11.70;1.00;;;;;;5027303;28;20431;-71
2023/11/16 12:51:20;;;;;;;8.88;2.97;;;11.50;1.00;;;;;;5028906;28;20393;-71
2023/11/16 12:53:46;;;;;;;7.75;2.53;;;11.50;1.00;;;;;;5029650;28;20410;-71
2023/11/16 12:56:14;;;;;;;8.05;2.60;;;11.60;1.00;;;;;;5023062;28;20524;-71
2023/11/16 12:58:40;;;;;;;7.82;2.50;;;11.50;1.00;;;;;;5028428;28;20754;-72
2023/11/16 13:01:12;;;;;;;9.48;2.72;;;11.40;1.00;;;;;;5023313;28;20414;-71
2023/11/16 13:03:44;;;;;;;10.07;3.33;;;11.50;1.00;;;;;;5022162;28;20402;-71